sensor_id;sensor_type;location;lat;lon;timestamp;temperature;humidity
664;DHT22;314;48.770;9.246;2022-07-31T00:01:11;20.60;75.30
664;DHT22;314;48.770;9.246;2022-07-31T00:03:37;20.50;75.60
664;DHT22;314;48.770;9.246;2022-07-31T00:06:03;20.50;76.00
664;DHT22;314;48.770;9.246;2022-07-31T00:08:29;20.40;75.90
664;DHT22;314;48.770;9.246;2022-07-31T00:10:55;20.40;76.00
664;DHT22;314;48.770;9.246;2022-07-31T00:13:21;20.30;76.70
664;DHT22;314;48.770;9.246;2022-07-31T00:15:46;20.30;76.40
664;DHT22;314;48.770;9.246;2022-07-31T00:18:12;20.20;76.60
664;DHT22;314;48.770;9.246;2022-07-31T00:20:38;20.20;76.70
664;DHT22;314;48.770;9.246;2022-07-31T00:23:04;20.10;77.30
664;DHT22;314;48.770;9.246;2022-07-31T00:25:31;20.10;77.70
664;DHT22;314;48.770;9.246;2022-07-31T00:27:57;20.00;77.70
664;DHT22;314;48.770;9.246;2022-07-31T00:30:23;20.00;78.00
664;DHT22;314;48.770;9.246;2022-07-31T00:32:49;19.90;78.50
664;DHT22;314;48.770;9.246;2022-07-31T00:35:15;19.90;78.90
664;DHT22;314;48.770;9.246;2022-07-31T00:37:41;19.80;79.20
664;DHT22;314;48.770;9.246;2022-07-31T00:40:10;19.80;79.60
664;DHT22;314;48.770;9.246;2022-07-31T00:42:36;19.80;80.20
664;DHT22;314;48.770;9.246;2022-07-31T00:45:03;19.80;81.00
664;DHT22;314;48.770;9.246;2022-07-31T00:47:29;19.70;82.00
664;DHT22;314;48.770;9.246;2022-07-31T00:49:55;19.70;82.60
664;DHT22;314;48.770;9.246;2022-07-31T00:52:21;19.70;83.00
664;DHT22;314;48.770;9.246;2022-07-31T00:54:47;19.70;83.50
664;DHT22;314;48.770;9.246;2022-07-31T00:57:13;19.70;83.70
664;DHT22;314;48.770;9.246;2022-07-31T00:59:40;19.70;83.90
664;DHT22;314;48.770;9.246;2022-07-31T01:02:06;19.70;84.20
664;DHT22;314;48.770;9.246;2022-07-31T01:04:35;19.70;84.50
664;DHT22;314;48.770;9.246;2022-07-31T01:07:01;19.60;84.60
664;DHT22;314;48.770;9.246;2022-07-31T01:09:30;19.60;84.50
664;DHT22;314;48.770;9.246;2022-07-31T01:12:00;19.60;85.30
664;DHT22;314;48.770;9.246;2022-07-31T01:14:33;19.50;86.00
664;DHT22;314;48.770;9.246;2022-07-31T01:17:00;19.50;86.30
664;DHT22;314;48.770;9.246;2022-07-31T01:19:36;19.40;86.60
664;DHT22;314;48.770;9.246;2022-07-31T01:22:41;19.40;87.00
664;DHT22;314;48.770;9.246;2022-07-31T01:30:31;19.30;88.40
664;DHT22;314;48.770;9.246;2022-07-31T01:33:01;19.20;88.90
664;DHT22;314;48.770;9.246;2022-07-31T01:35:37;19.20;88.80
664;DHT22;314;48.770;9.246;2022-07-31T01:38:12;19.20;88.80
664;DHT22;314;48.770;9.246;2022-07-31T01:40:45;19.20;88.70
664;DHT22;314;48.770;9.246;2022-07-31T01:43:18;19.20;89.10
664;DHT22;314;48.770;9.246;2022-07-31T01:45:48;19.20;88.90
664;DHT22;314;48.770;9.246;2022-07-31T01:48:15;19.20;88.90
664;DHT22;314;48.770;9.246;2022-07-31T01:50:43;19.10;89.50
664;DHT22;314;48.770;9.246;2022-07-31T01:53:16;19.20;89.40
664;DHT22;314;48.770;9.246;2022-07-31T01:55:44;19.10;89.50
664;DHT22;314;48.770;9.246;2022-07-31T01:58:10;19.10;89.20
664;DHT22;314;48.770;9.246;2022-07-31T02:00:37;19.10;89.40
664;DHT22;314;48.770;9.246;2022-07-31T02:03:05;19.10;89.20
664;DHT22;314;48.770;9.246;2022-07-31T02:05:34;19.00;89.40
664;DHT22;314;48.770;9.246;2022-07-31T02:08:02;19.00;89.60
664;DHT22;314;48.770;9.246;2022-07-31T02:10:29;19.00;89.80
664;DHT22;314;48.770;9.246;2022-07-31T02:12:56;19.00;89.60
664;DHT22;314;48.770;9.246;2022-07-31T02:15:23;18.90;89.60
664;DHT22;314;48.770;9.246;2022-07-31T02:17:50;19.00;90.10
664;DHT22;314;48.770;9.246;2022-07-31T02:20:18;18.90;90.10
664;DHT22;314;48.770;9.246;2022-07-31T02:22:45;18.80;90.40
664;DHT22;314;48.770;9.246;2022-07-31T02:27:42;18.80;90.30
664;DHT22;314;48.770;9.246;2022-07-31T02:30:09;18.80;90.40
664;DHT22;314;48.770;9.246;2022-07-31T02:32:36;18.80;90.60
664;DHT22;314;48.770;9.246;2022-07-31T02:35:03;18.70;90.40
664;DHT22;314;48.770;9.246;2022-07-31T02:37:30;18.70;90.70
664;DHT22;314;48.770;9.246;2022-07-31T02:39:59;18.70;90.80
664;DHT22;314;48.770;9.246;2022-07-31T02:42:25;18.70;91.10
664;DHT22;314;48.770;9.246;2022-07-31T02:44:52;18.60;91.30
664;DHT22;314;48.770;9.246;2022-07-31T02:47:18;18.60;91.50
664;DHT22;314;48.770;9.246;2022-07-31T02:49:44;18.60;91.70
664;DHT22;314;48.770;9.246;2022-07-31T02:52:14;18.50;91.80
664;DHT22;314;48.770;9.246;2022-07-31T02:54:40;18.40;91.90
664;DHT22;314;48.770;9.246;2022-07-31T02:57:08;18.40;91.80
664;DHT22;314;48.770;9.246;2022-07-31T02:59:37;18.40;91.80
664;DHT22;314;48.770;9.246;2022-07-31T03:02:03;18.40;91.70
664;DHT22;314;48.770;9.246;2022-07-31T03:04:29;18.40;91.70
664;DHT22;314;48.770;9.246;2022-07-31T03:06:55;18.40;91.60
664;DHT22;314;48.770;9.246;2022-07-31T03:09:21;18.40;91.60
664;DHT22;314;48.770;9.246;2022-07-31T03:11:47;18.40;91.30
664;DHT22;314;48.770;9.246;2022-07-31T03:14:13;18.40;91.50
664;DHT22;314;48.770;9.246;2022-07-31T03:16:41;18.40;91.50
664;DHT22;314;48.770;9.246;2022-07-31T03:19:07;18.40;91.60
664;DHT22;314;48.770;9.246;2022-07-31T03:21:34;18.30;91.80
664;DHT22;314;48.770;9.246;2022-07-31T03:24:01;18.30;92.00
664;DHT22;314;48.770;9.246;2022-07-31T03:26:27;18.20;92.20
664;DHT22;314;48.770;9.246;2022-07-31T03:28:53;18.20;92.20
664;DHT22;314;48.770;9.246;2022-07-31T03:31:20;18.30;92.30
664;DHT22;314;48.770;9.246;2022-07-31T03:33:46;18.20;92.40
664;DHT22;314;48.770;9.246;2022-07-31T03:36:12;18.20;92.00
664;DHT22;314;48.770;9.246;2022-07-31T03:38:38;18.20;92.20
664;DHT22;314;48.770;9.246;2022-07-31T03:41:04;18.10;92.60
664;DHT22;314;48.770;9.246;2022-07-31T03:43:31;18.10;92.60
664;DHT22;314;48.770;9.246;2022-07-31T03:46:00;18.10;92.90
664;DHT22;314;48.770;9.246;2022-07-31T03:48:30;18.10;93.00
664;DHT22;314;48.770;9.246;2022-07-31T03:50:56;18.00;92.90
664;DHT22;314;48.770;9.246;2022-07-31T03:53:23;18.00;93.10
664;DHT22;314;48.770;9.246;2022-07-31T03:55:49;18.00;93.30
664;DHT22;314;48.770;9.246;2022-07-31T03:58:17;18.00;93.30
664;DHT22;314;48.770;9.246;2022-07-31T04:00:44;18.00;93.50
664;DHT22;314;48.770;9.246;2022-07-31T04:03:11;17.90;93.40
664;DHT22;314;48.770;9.246;2022-07-31T04:05:38;17.90;93.40
664;DHT22;314;48.770;9.246;2022-07-31T04:08:06;17.90;93.50
664;DHT22;314;48.770;9.246;2022-07-31T04:10:32;17.90;93.50
664;DHT22;314;48.770;9.246;2022-07-31T04:12:57;17.90;93.50
664;DHT22;314;48.770;9.246;2022-07-31T04:15:23;17.90;93.40
664;DHT22;314;48.770;9.246;2022-07-31T04:17:49;17.80;93.50
664;DHT22;314;48.770;9.246;2022-07-31T04:20:15;17.90;93.50
664;DHT22;314;48.770;9.246;2022-07-31T04:22:41;17.90;93.20
664;DHT22;314;48.770;9.246;2022-07-31T04:25:07;17.90;93.00
664;DHT22;314;48.770;9.246;2022-07-31T04:27:36;17.90;92.80
664;DHT22;314;48.770;9.246;2022-07-31T04:30:02;17.90;93.00
664;DHT22;314;48.770;9.246;2022-07-31T04:32:28;17.90;93.10
664;DHT22;314;48.770;9.246;2022-07-31T04:34:54;17.90;93.00
664;DHT22;314;48.770;9.246;2022-07-31T04:37:20;17.90;93.00
664;DHT22;314;48.770;9.246;2022-07-31T04:39:46;18.00;93.00
664;DHT22;314;48.770;9.246;2022-07-31T04:42:12;18.00;92.90
664;DHT22;314;48.770;9.246;2022-07-31T04:44:37;18.00;92.90
664;DHT22;314;48.770;9.246;2022-07-31T04:47:04;17.90;93.20
664;DHT22;314;48.770;9.246;2022-07-31T04:49:31;17.90;93.20
664;DHT22;314;48.770;9.246;2022-07-31T04:52:00;18.00;93.40
664;DHT22;314;48.770;9.246;2022-07-31T04:54:27;18.10;93.00
664;DHT22;314;48.770;9.246;2022-07-31T04:56:54;18.10;93.30
664;DHT22;314;48.770;9.246;2022-07-31T04:59:21;18.10;93.20
664;DHT22;314;48.770;9.246;2022-07-31T05:01:48;18.10;93.30
664;DHT22;314;48.770;9.246;2022-07-31T05:04:14;18.20;93.40
664;DHT22;314;48.770;9.246;2022-07-31T05:06:45;18.30;93.10
664;DHT22;314;48.770;9.246;2022-07-31T05:09:14;18.40;92.90
664;DHT22;314;48.770;9.246;2022-07-31T05:11:41;18.50;92.40
664;DHT22;314;48.770;9.246;2022-07-31T05:14:09;18.50;92.40
664;DHT22;314;48.770;9.246;2022-07-31T05:16:36;18.60;91.70
664;DHT22;314;48.770;9.246;2022-07-31T05:19:02;18.60;91.60
664;DHT22;314;48.770;9.246;2022-07-31T05:21:29;18.70;91.50
664;DHT22;314;48.770;9.246;2022-07-31T05:23:55;18.80;90.90
664;DHT22;314;48.770;9.246;2022-07-31T05:26:22;18.80;91.10
664;DHT22;314;48.770;9.246;2022-07-31T05:28:49;19.00;90.80
664;DHT22;314;48.770;9.246;2022-07-31T05:31:16;19.00;90.90
664;DHT22;314;48.770;9.246;2022-07-31T05:33:43;19.10;90.10
664;DHT22;314;48.770;9.246;2022-07-31T05:36:10;19.20;90.10
664;DHT22;314;48.770;9.246;2022-07-31T05:38:36;19.20;89.50
664;DHT22;314;48.770;9.246;2022-07-31T05:41:01;19.30;88.50
664;DHT22;314;48.770;9.246;2022-07-31T05:43:27;19.40;88.10
664;DHT22;314;48.770;9.246;2022-07-31T05:45:53;19.40;87.80
664;DHT22;314;48.770;9.246;2022-07-31T05:48:19;19.40;88.40
664;DHT22;314;48.770;9.246;2022-07-31T05:50:47;19.40;88.50
664;DHT22;314;48.770;9.246;2022-07-31T05:53:14;19.40;88.40
664;DHT22;314;48.770;9.246;2022-07-31T05:55:43;19.50;88.30
664;DHT22;314;48.770;9.246;2022-07-31T05:58:10;19.60;88.30
664;DHT22;314;48.770;9.246;2022-07-31T06:00:36;19.60;87.80
664;DHT22;314;48.770;9.246;2022-07-31T06:03:03;19.70;87.60
664;DHT22;314;48.770;9.246;2022-07-31T06:05:30;19.80;87.40
664;DHT22;314;48.770;9.246;2022-07-31T06:07:57;19.90;87.10
664;DHT22;314;48.770;9.246;2022-07-31T06:10:23;20.00;86.40
664;DHT22;314;48.770;9.246;2022-07-31T06:12:50;20.00;86.40
664;DHT22;314;48.770;9.246;2022-07-31T06:15:16;20.20;85.80
664;DHT22;314;48.770;9.246;2022-07-31T06:17:42;20.30;85.50
664;DHT22;314;48.770;9.246;2022-07-31T06:20:09;20.30;84.80
664;DHT22;314;48.770;9.246;2022-07-31T06:22:35;20.30;85.20
664;DHT22;314;48.770;9.246;2022-07-31T06:25:02;20.30;84.60
664;DHT22;314;48.770;9.246;2022-07-31T06:27:28;20.40;84.50
664;DHT22;314;48.770;9.246;2022-07-31T06:29:54;20.40;83.80
664;DHT22;314;48.770;9.246;2022-07-31T06:32:22;20.30;84.20
664;DHT22;314;48.770;9.246;2022-07-31T06:34:48;20.40;84.80
664;DHT22;314;48.770;9.246;2022-07-31T06:37:14;20.50;84.40
664;DHT22;314;48.770;9.246;2022-07-31T06:39:40;20.60;84.60
664;DHT22;314;48.770;9.246;2022-07-31T06:42:06;20.70;84.60
664;DHT22;314;48.770;9.246;2022-07-31T06:44:33;20.80;82.80
664;DHT22;314;48.770;9.246;2022-07-31T06:46:59;20.90;82.70
664;DHT22;314;48.770;9.246;2022-07-31T06:49:25;21.10;82.30
664;DHT22;314;48.770;9.246;2022-07-31T06:51:51;21.30;81.90
664;DHT22;314;48.770;9.246;2022-07-31T06:54:17;21.40;81.20
664;DHT22;314;48.770;9.246;2022-07-31T06:56:43;21.40;78.80
664;DHT22;314;48.770;9.246;2022-07-31T06:59:09;21.30;80.20
664;DHT22;314;48.770;9.246;2022-07-31T07:01:35;21.30;80.80
664;DHT22;314;48.770;9.246;2022-07-31T07:04:01;21.40;80.50
664;DHT22;314;48.770;9.246;2022-07-31T07:06:27;21.50;80.50
664;DHT22;314;48.770;9.246;2022-07-31T07:08:54;21.60;79.80
664;DHT22;314;48.770;9.246;2022-07-31T07:11:20;21.60;80.20
664;DHT22;314;48.770;9.246;2022-07-31T07:13:46;21.60;78.90
664;DHT22;314;48.770;9.246;2022-07-31T07:16:13;21.70;78.40
664;DHT22;314;48.770;9.246;2022-07-31T07:18:39;21.60;78.70
664;DHT22;314;48.770;9.246;2022-07-31T07:21:04;21.70;79.10
664;DHT22;314;48.770;9.246;2022-07-31T07:23:30;21.80;79.20
664;DHT22;314;48.770;9.246;2022-07-31T07:25:57;21.90;78.50
664;DHT22;314;48.770;9.246;2022-07-31T07:28:24;22.00;78.80
664;DHT22;314;48.770;9.246;2022-07-31T07:30:50;22.10;78.10
664;DHT22;314;48.770;9.246;2022-07-31T07:33:16;22.40;77.40
664;DHT22;314;48.770;9.246;2022-07-31T07:35:42;22.50;77.00
664;DHT22;314;48.770;9.246;2022-07-31T07:43:00;22.90;75.80
664;DHT22;314;48.770;9.246;2022-07-31T07:45:26;23.00;75.60
664;DHT22;314;48.770;9.246;2022-07-31T07:47:52;23.20;74.10
664;DHT22;314;48.770;9.246;2022-07-31T07:50:18;23.20;73.80
664;DHT22;314;48.770;9.246;2022-07-31T07:52:43;23.40;74.10
664;DHT22;314;48.770;9.246;2022-07-31T07:55:10;23.50;73.40
664;DHT22;314;48.770;9.246;2022-07-31T07:57:37;23.70;72.80
664;DHT22;314;48.770;9.246;2022-07-31T08:00:06;23.80;73.00
664;DHT22;314;48.770;9.246;2022-07-31T08:02:32;23.90;72.10
664;DHT22;314;48.770;9.246;2022-07-31T08:04:59;24.10;70.30
664;DHT22;314;48.770;9.246;2022-07-31T08:07:29;24.20;70.10
664;DHT22;314;48.770;9.246;2022-07-31T08:09:56;24.30;70.30
664;DHT22;314;48.770;9.246;2022-07-31T08:12:22;24.40;70.90
664;DHT22;314;48.770;9.246;2022-07-31T08:14:47;24.40;70.80
664;DHT22;314;48.770;9.246;2022-07-31T08:17:13;24.40;69.90
664;DHT22;314;48.770;9.246;2022-07-31T08:19:39;24.40;69.10
664;DHT22;314;48.770;9.246;2022-07-31T08:22:07;24.50;68.50
664;DHT22;314;48.770;9.246;2022-07-31T08:24:33;24.50;68.10
664;DHT22;314;48.770;9.246;2022-07-31T08:26:59;24.50;68.50
664;DHT22;314;48.770;9.246;2022-07-31T08:29:44;24.50;68.10
664;DHT22;314;48.770;9.246;2022-07-31T08:32:10;24.40;68.70
664;DHT22;314;48.770;9.246;2022-07-31T08:34:36;24.40;69.60
664;DHT22;314;48.770;9.246;2022-07-31T08:37:03;24.40;69.90
664;DHT22;314;48.770;9.246;2022-07-31T08:39:31;24.50;69.40
664;DHT22;314;48.770;9.246;2022-07-31T08:41:57;24.80;68.90
664;DHT22;314;48.770;9.246;2022-07-31T08:44:23;24.70;67.80
664;DHT22;314;48.770;9.246;2022-07-31T08:46:50;24.80;68.10
664;DHT22;314;48.770;9.246;2022-07-31T08:49:18;24.90;67.60
664;DHT22;314;48.770;9.246;2022-07-31T08:51:46;25.10;68.90
664;DHT22;314;48.770;9.246;2022-07-31T08:54:13;25.20;67.70
664;DHT22;314;48.770;9.246;2022-07-31T08:56:39;25.40;67.40
664;DHT22;314;48.770;9.246;2022-07-31T08:59:06;25.60;67.30
664;DHT22;314;48.770;9.246;2022-07-31T09:01:33;25.90;65.60
664;DHT22;314;48.770;9.246;2022-07-31T09:03:59;26.20;65.20
664;DHT22;314;48.770;9.246;2022-07-31T09:06:25;26.50;65.30
664;DHT22;314;48.770;9.246;2022-07-31T09:08:54;26.90;62.60
664;DHT22;314;48.770;9.246;2022-07-31T09:11:20;27.10;59.60
664;DHT22;314;48.770;9.246;2022-07-31T09:13:57;27.30;59.70
664;DHT22;314;48.770;9.246;2022-07-31T09:16:24;27.50;58.50
664;DHT22;314;48.770;9.246;2022-07-31T09:19:02;27.70;57.60
664;DHT22;314;48.770;9.246;2022-07-31T09:21:42;27.90;55.70
664;DHT22;314;48.770;9.246;2022-07-31T09:24:12;28.00;54.30
664;DHT22;314;48.770;9.246;2022-07-31T09:26:39;28.20;56.40
664;DHT22;314;48.770;9.246;2022-07-31T09:29:06;28.40;54.30
664;DHT22;314;48.770;9.246;2022-07-31T09:31:37;28.70;54.20
664;DHT22;314;48.770;9.246;2022-07-31T09:34:04;28.80;52.20
664;DHT22;314;48.770;9.246;2022-07-31T09:36:31;29.00;51.70
664;DHT22;314;48.770;9.246;2022-07-31T09:38:57;29.20;50.50
664;DHT22;314;48.770;9.246;2022-07-31T09:41:24;29.40;50.00
664;DHT22;314;48.770;9.246;2022-07-31T09:43:57;29.50;48.20
664;DHT22;314;48.770;9.246;2022-07-31T09:49:05;30.00;44.40
664;DHT22;314;48.770;9.246;2022-07-31T09:51:38;30.10;46.10
664;DHT22;314;48.770;9.246;2022-07-31T09:54:05;30.00;46.00
664;DHT22;314;48.770;9.246;2022-07-31T09:56:31;29.90;46.10
664;DHT22;314;48.770;9.246;2022-07-31T09:58:58;29.80;46.60
664;DHT22;314;48.770;9.246;2022-07-31T10:01:25;29.60;47.00
664;DHT22;314;48.770;9.246;2022-07-31T10:03:52;29.50;48.80
664;DHT22;314;48.770;9.246;2022-07-31T10:06:19;29.40;47.80
664;DHT22;314;48.770;9.246;2022-07-31T10:08:45;29.30;47.90
664;DHT22;314;48.770;9.246;2022-07-31T10:11:13;29.30;48.30
664;DHT22;314;48.770;9.246;2022-07-31T10:13:44;29.30;47.80
664;DHT22;314;48.770;9.246;2022-07-31T10:16:11;29.30;48.10
664;DHT22;314;48.770;9.246;2022-07-31T10:18:38;29.30;48.40
664;DHT22;314;48.770;9.246;2022-07-31T10:21:07;29.50;47.90
664;DHT22;314;48.770;9.246;2022-07-31T10:23:40;29.90;48.40
664;DHT22;314;48.770;9.246;2022-07-31T10:31:04;31.20;44.40
664;DHT22;314;48.770;9.246;2022-07-31T10:33:31;31.20;44.90
664;DHT22;314;48.770;9.246;2022-07-31T10:38:44;30.80;45.30
664;DHT22;314;48.770;9.246;2022-07-31T10:44:30;30.30;45.60
664;DHT22;314;48.770;9.246;2022-07-31T10:46:57;30.20;44.00
664;DHT22;314;48.770;9.246;2022-07-31T10:49:44;30.30;43.70
664;DHT22;314;48.770;9.246;2022-07-31T10:52:11;30.60;47.40
664;DHT22;314;48.770;9.246;2022-07-31T10:54:46;31.00;43.20
664;DHT22;314;48.770;9.246;2022-07-31T10:57:32;31.20;41.90
664;DHT22;314;48.770;9.246;2022-07-31T11:00:12;31.10;41.40
664;DHT22;314;48.770;9.246;2022-07-31T11:02:39;30.60;42.30
664;DHT22;314;48.770;9.246;2022-07-31T11:05:16;30.40;42.70
664;DHT22;314;48.770;9.246;2022-07-31T11:07:46;30.00;44.00
664;DHT22;314;48.770;9.246;2022-07-31T11:10:13;29.90;44.60
664;DHT22;314;48.770;9.246;2022-07-31T11:12:39;30.00;43.20
664;DHT22;314;48.770;9.246;2022-07-31T11:15:19;30.00;45.00
664;DHT22;314;48.770;9.246;2022-07-31T11:17:45;30.20;46.70
664;DHT22;314;48.770;9.246;2022-07-31T11:22:57;30.50;46.30
664;DHT22;314;48.770;9.246;2022-07-31T11:25:24;30.80;45.70
664;DHT22;314;48.770;9.246;2022-07-31T11:27:54;30.90;44.80
664;DHT22;314;48.770;9.246;2022-07-31T11:30:20;31.10;44.60
664;DHT22;314;48.770;9.246;2022-07-31T11:32:50;31.30;45.20
664;DHT22;314;48.770;9.246;2022-07-31T11:35:28;31.70;44.80
664;DHT22;314;48.770;9.246;2022-07-31T11:37:54;32.20;43.30
664;DHT22;314;48.770;9.246;2022-07-31T11:40:21;32.40;41.00
664;DHT22;314;48.770;9.246;2022-07-31T11:42:47;32.70;42.60
664;DHT22;314;48.770;9.246;2022-07-31T11:45:14;32.60;41.90
664;DHT22;314;48.770;9.246;2022-07-31T11:47:42;32.60;40.50
664;DHT22;314;48.770;9.246;2022-07-31T11:50:08;32.60;41.00
664;DHT22;314;48.770;9.246;2022-07-31T11:52:35;32.40;41.80
664;DHT22;314;48.770;9.246;2022-07-31T11:55:06;32.30;42.80
664;DHT22;314;48.770;9.246;2022-07-31T11:57:36;32.00;42.70
664;DHT22;314;48.770;9.246;2022-07-31T12:00:11;31.70;43.50
664;DHT22;314;48.770;9.246;2022-07-31T12:02:45;31.60;42.00
664;DHT22;314;48.770;9.246;2022-07-31T12:05:12;31.60;42.70
664;DHT22;314;48.770;9.246;2022-07-31T12:07:40;31.70;41.00
664;DHT22;314;48.770;9.246;2022-07-31T12:10:08;31.80;40.70
664;DHT22;314;48.770;9.246;2022-07-31T12:12:34;31.90;41.10
664;DHT22;314;48.770;9.246;2022-07-31T12:15:20;32.20;43.50
664;DHT22;314;48.770;9.246;2022-07-31T12:17:47;32.60;41.60
664;DHT22;314;48.770;9.246;2022-07-31T12:20:13;33.00;42.30
664;DHT22;314;48.770;9.246;2022-07-31T12:22:39;33.40;39.90
664;DHT22;314;48.770;9.246;2022-07-31T12:25:06;33.50;39.90
664;DHT22;314;48.770;9.246;2022-07-31T12:27:34;33.70;37.00
664;DHT22;314;48.770;9.246;2022-07-31T12:30:12;33.80;38.80
664;DHT22;314;48.770;9.246;2022-07-31T12:32:39;33.70;38.80
664;DHT22;314;48.770;9.246;2022-07-31T12:35:05;33.60;40.50
664;DHT22;314;48.770;9.246;2022-07-31T12:37:45;33.70;39.30
664;DHT22;314;48.770;9.246;2022-07-31T12:40:25;33.80;40.50
664;DHT22;314;48.770;9.246;2022-07-31T12:42:51;34.00;38.20
664;DHT22;314;48.770;9.246;2022-07-31T12:45:36;34.10;39.90
664;DHT22;314;48.770;9.246;2022-07-31T12:48:03;34.00;41.10
664;DHT22;314;48.770;9.246;2022-07-31T12:50:32;33.80;40.70
664;DHT22;314;48.770;9.246;2022-07-31T12:53:02;33.70;41.90
664;DHT22;314;48.770;9.246;2022-07-31T12:55:31;33.50;39.50
664;DHT22;314;48.770;9.246;2022-07-31T12:57:57;33.40;38.60
664;DHT22;314;48.770;9.246;2022-07-31T13:00:25;33.20;39.30
664;DHT22;314;48.770;9.246;2022-07-31T13:02:52;33.00;43.50
664;DHT22;314;48.770;9.246;2022-07-31T13:05:18;32.80;41.90
664;DHT22;314;48.770;9.246;2022-07-31T13:07:47;32.50;41.40
664;DHT22;314;48.770;9.246;2022-07-31T13:10:13;32.40;40.10
664;DHT22;314;48.770;9.246;2022-07-31T13:12:39;32.50;41.50
664;DHT22;314;48.770;9.246;2022-07-31T13:15:06;32.60;40.70
664;DHT22;314;48.770;9.246;2022-07-31T13:17:32;32.90;40.70
664;DHT22;314;48.770;9.246;2022-07-31T13:19:58;33.30;39.90
664;DHT22;314;48.770;9.246;2022-07-31T13:22:24;33.70;41.00
664;DHT22;314;48.770;9.246;2022-07-31T13:24:50;34.10;41.10
664;DHT22;314;48.770;9.246;2022-07-31T13:27:16;34.40;38.90
664;DHT22;314;48.770;9.246;2022-07-31T13:29:43;34.60;39.70
664;DHT22;314;48.770;9.246;2022-07-31T13:32:09;34.80;41.90
664;DHT22;314;48.770;9.246;2022-07-31T13:34:35;35.00;42.30
664;DHT22;314;48.770;9.246;2022-07-31T13:37:01;35.00;38.40
664;DHT22;314;48.770;9.246;2022-07-31T13:39:27;34.90;39.90
664;DHT22;314;48.770;9.246;2022-07-31T13:41:52;34.50;39.30
664;DHT22;314;48.770;9.246;2022-07-31T13:44:18;34.00;41.10
664;DHT22;314;48.770;9.246;2022-07-31T13:46:44;33.50;41.00
664;DHT22;314;48.770;9.246;2022-07-31T13:49:11;32.90;40.30
664;DHT22;314;48.770;9.246;2022-07-31T13:51:37;32.60;40.50
664;DHT22;314;48.770;9.246;2022-07-31T13:54:04;32.70;44.40
664;DHT22;314;48.770;9.246;2022-07-31T13:56:30;33.10;42.80
664;DHT22;314;48.770;9.246;2022-07-31T13:58:56;33.30;40.20
664;DHT22;314;48.770;9.246;2022-07-31T14:01:22;33.30;41.40
664;DHT22;314;48.770;9.246;2022-07-31T14:03:48;33.20;42.90
664;DHT22;314;48.770;9.246;2022-07-31T14:06:14;33.10;40.50
664;DHT22;314;48.770;9.246;2022-07-31T14:08:39;32.80;43.30
664;DHT22;314;48.770;9.246;2022-07-31T14:11:05;32.70;41.90
664;DHT22;314;48.770;9.246;2022-07-31T14:13:31;32.80;41.00
664;DHT22;314;48.770;9.246;2022-07-31T14:15:57;33.10;38.60
664;DHT22;314;48.770;9.246;2022-07-31T14:18:23;33.40;40.60
664;DHT22;314;48.770;9.246;2022-07-31T14:20:49;33.80;40.20
664;DHT22;314;48.770;9.246;2022-07-31T14:23:15;33.90;37.60
664;DHT22;314;48.770;9.246;2022-07-31T14:25:41;33.90;38.80
664;DHT22;314;48.770;9.246;2022-07-31T14:28:08;33.90;36.80
664;DHT22;314;48.770;9.246;2022-07-31T14:30:34;33.80;36.50
664;DHT22;314;48.770;9.246;2022-07-31T14:33:02;33.40;36.90
664;DHT22;314;48.770;9.246;2022-07-31T14:35:29;33.30;36.30
664;DHT22;314;48.770;9.246;2022-07-31T14:37:54;33.10;36.80
664;DHT22;314;48.770;9.246;2022-07-31T14:40:21;33.10;38.40
664;DHT22;314;48.770;9.246;2022-07-31T14:42:46;33.50;38.50
664;DHT22;314;48.770;9.246;2022-07-31T14:45:12;33.90;38.00
664;DHT22;314;48.770;9.246;2022-07-31T14:47:38;34.40;35.90
664;DHT22;314;48.770;9.246;2022-07-31T14:50:05;34.70;36.10
664;DHT22;314;48.770;9.246;2022-07-31T14:52:31;34.90;34.70
664;DHT22;314;48.770;9.246;2022-07-31T14:54:58;34.60;33.10
664;DHT22;314;48.770;9.246;2022-07-31T14:57:25;34.50;36.00
664;DHT22;314;48.770;9.246;2022-07-31T14:59:51;34.70;34.30
664;DHT22;314;48.770;9.246;2022-07-31T15:02:17;34.90;33.90
664;DHT22;314;48.770;9.246;2022-07-31T15:04:43;34.70;34.70
664;DHT22;314;48.770;9.246;2022-07-31T15:07:08;34.70;33.50
664;DHT22;314;48.770;9.246;2022-07-31T15:09:34;35.10;34.80
664;DHT22;314;48.770;9.246;2022-07-31T15:12:00;35.20;32.70
664;DHT22;314;48.770;9.246;2022-07-31T15:14:26;35.00;33.10
664;DHT22;314;48.770;9.246;2022-07-31T15:16:52;35.00;32.90
664;DHT22;314;48.770;9.246;2022-07-31T15:19:17;34.90;32.90
664;DHT22;314;48.770;9.246;2022-07-31T15:21:44;35.00;32.70
664;DHT22;314;48.770;9.246;2022-07-31T15:24:10;35.10;32.50
664;DHT22;314;48.770;9.246;2022-07-31T15:26:36;34.80;32.50
664;DHT22;314;48.770;9.246;2022-07-31T15:29:01;34.60;32.60
664;DHT22;314;48.770;9.246;2022-07-31T15:31:27;34.20;33.40
664;DHT22;314;48.770;9.246;2022-07-31T15:33:53;34.10;33.10
664;DHT22;314;48.770;9.246;2022-07-31T15:36:23;34.10;34.60
664;DHT22;314;48.770;9.246;2022-07-31T15:38:49;34.40;33.90
664;DHT22;314;48.770;9.246;2022-07-31T15:41:15;34.50;33.60
664;DHT22;314;48.770;9.246;2022-07-31T15:43:41;34.50;33.00
664;DHT22;314;48.770;9.246;2022-07-31T15:46:08;34.50;33.40
664;DHT22;314;48.770;9.246;2022-07-31T15:48:35;34.70;32.70
664;DHT22;314;48.770;9.246;2022-07-31T15:51:02;34.90;33.60
664;DHT22;314;48.770;9.246;2022-07-31T15:53:28;34.90;33.50
664;DHT22;314;48.770;9.246;2022-07-31T15:55:53;35.00;33.60
664;DHT22;314;48.770;9.246;2022-07-31T15:58:19;35.10;31.40
664;DHT22;314;48.770;9.246;2022-07-31T16:00:45;35.10;32.30
664;DHT22;314;48.770;9.246;2022-07-31T16:03:11;35.20;32.60
664;DHT22;314;48.770;9.246;2022-07-31T16:05:37;34.80;32.70
664;DHT22;314;48.770;9.246;2022-07-31T16:08:04;34.60;33.80
664;DHT22;314;48.770;9.246;2022-07-31T16:10:30;34.30;33.80
664;DHT22;314;48.770;9.246;2022-07-31T16:12:56;34.00;33.60
664;DHT22;314;48.770;9.246;2022-07-31T16:15:22;33.70;35.60
664;DHT22;314;48.770;9.246;2022-07-31T16:17:48;33.70;34.60
664;DHT22;314;48.770;9.246;2022-07-31T16:20:19;33.70;35.70
664;DHT22;314;48.770;9.246;2022-07-31T16:22:48;33.90;34.80
664;DHT22;314;48.770;9.246;2022-07-31T16:25:17;34.30;35.00
664;DHT22;314;48.770;9.246;2022-07-31T16:27:43;34.30;33.50
664;DHT22;314;48.770;9.246;2022-07-31T16:30:09;34.30;34.80
664;DHT22;314;48.770;9.246;2022-07-31T16:32:37;34.20;34.00
664;DHT22;314;48.770;9.246;2022-07-31T16:35:04;34.00;35.10
664;DHT22;314;48.770;9.246;2022-07-31T16:37:30;33.80;35.00
664;DHT22;314;48.770;9.246;2022-07-31T16:39:56;33.70;35.00
664;DHT22;314;48.770;9.246;2022-07-31T16:42:25;33.50;35.10
664;DHT22;314;48.770;9.246;2022-07-31T16:44:50;33.30;35.70
664;DHT22;314;48.770;9.246;2022-07-31T16:47:19;33.20;36.80
664;DHT22;314;48.770;9.246;2022-07-31T16:49:45;33.00;36.70
664;DHT22;314;48.770;9.246;2022-07-31T16:52:11;32.80;37.30
664;DHT22;314;48.770;9.246;2022-07-31T16:54:39;32.60;37.60
664;DHT22;314;48.770;9.246;2022-07-31T16:57:06;32.60;38.10
664;DHT22;314;48.770;9.246;2022-07-31T16:59:32;32.90;37.40
664;DHT22;314;48.770;9.246;2022-07-31T17:01:59;33.10;36.90
664;DHT22;314;48.770;9.246;2022-07-31T17:04:25;33.30;35.90